sensor_id;sensor_type;location;lat;lon;timestamp;P1;durP1;ratioP1;P2;durP2;ratioP2
60292;SDS011;52402;52.670;6.750;2024-01-27T00:01:16;17.55;;;16.75;;
60292;SDS011;52402;52.670;6.750;2024-01-27T00:03:42;17.48;;;16.67;;
60292;SDS011;52402;52.670;6.750;2024-01-27T00:06:08;17.15;;;16.35;;
60292;SDS011;52402;52.670;6.750;2024-01-27T00:08:33;16.85;;;16.05;;
60292;SDS011;52402;52.670;6.750;2024-01-27T00:10:59;16.85;;;16.05;;
60292;SDS011;52402;52.670;6.750;2024-01-27T00:13:25;16.30;;;15.50;;
60292;SDS011;52402;52.670;6.750;2024-01-27T00:15:50;16.65;;;15.85;;
60292;SDS011;52402;52.670;6.750;2024-01-27T00:18:17;16.95;;;16.15;;
60292;SDS011;52402;52.670;6.750;2024-01-27T00:20:42;17.20;;;16.40;;
60292;SDS011;52402;52.670;6.750;2024-01-27T00:23:08;16.70;;;15.90;;
60292;SDS011;52402;52.670;6.750;2024-01-27T00:25:35;17.60;;;16.80;;
60292;SDS011;52402;52.670;6.750;2024-01-27T00:28:01;15.98;;;15.18;;
60292;SDS011;52402;52.670;6.750;2024-01-27T00:30:26;16.27;;;15.48;;
60292;SDS011;52402;52.670;6.750;2024-01-27T00:32:52;17.20;;;16.40;;
60292;SDS011;52402;52.670;6.750;2024-01-27T00:35:18;16.40;;;15.60;;
60292;SDS011;52402;52.670;6.750;2024-01-27T00:37:43;17.15;;;16.35;;
60292;SDS011;52402;52.670;6.750;2024-01-27T00:40:09;16.60;;;15.80;;
60292;SDS011;52402;52.670;6.750;2024-01-27T00:42:35;16.67;;;15.88;;
60292;SDS011;52402;52.670;6.750;2024-01-27T00:45:02;16.23;;;15.43;;
60292;SDS011;52402;52.670;6.750;2024-01-27T00:47:28;16.08;;;15.27;;
60292;SDS011;52402;52.670;6.750;2024-01-27T00:49:54;16.23;;;15.43;;
60292;SDS011;52402;52.670;6.750;2024-01-27T00:52:20;16.73;;;15.93;;
60292;SDS011;52402;52.670;6.750;2024-01-27T00:54:45;16.65;;;15.85;;
60292;SDS011;52402;52.670;6.750;2024-01-27T00:57:11;16.85;;;16.05;;
60292;SDS011;52402;52.670;6.750;2024-01-27T00:59:37;17.10;;;16.30;;
60292;SDS011;52402;52.670;6.750;2024-01-27T01:02:02;16.65;;;15.85;;
60292;SDS011;52402;52.670;6.750;2024-01-27T01:04:28;16.05;;;15.25;;
60292;SDS011;52402;52.670;6.750;2024-01-27T01:06:54;17.55;;;16.75;;
60292;SDS011;52402;52.670;6.750;2024-01-27T01:09:20;16.83;;;16.02;;
60292;SDS011;52402;52.670;6.750;2024-01-27T01:11:45;17.52;;;16.73;;
60292;SDS011;52402;52.670;6.750;2024-01-27T01:14:11;17.40;;;16.60;;
60292;SDS011;52402;52.670;6.750;2024-01-27T01:16:38;16.55;;;15.75;;
60292;SDS011;52402;52.670;6.750;2024-01-27T01:19:05;17.65;;;16.85;;
60292;SDS011;52402;52.670;6.750;2024-01-27T01:21:31;16.77;;;15.98;;
60292;SDS011;52402;52.670;6.750;2024-01-27T01:23:56;17.00;;;16.20;;
60292;SDS011;52402;52.670;6.750;2024-01-27T01:26:24;18.33;;;17.42;;
60292;SDS011;52402;52.670;6.750;2024-01-27T01:28:50;17.90;;;17.08;;
60292;SDS011;52402;52.670;6.750;2024-01-27T01:31:16;17.05;;;16.25;;
60292;SDS011;52402;52.670;6.750;2024-01-27T01:33:42;16.98;;;16.17;;
60292;SDS011;52402;52.670;6.750;2024-01-27T01:36:09;16.23;;;15.43;;
60292;SDS011;52402;52.670;6.750;2024-01-27T01:38:35;16.10;;;15.30;;
60292;SDS011;52402;52.670;6.750;2024-01-27T01:41:02;16.55;;;15.75;;
60292;SDS011;52402;52.670;6.750;2024-01-27T01:43:27;16.25;;;15.45;;
60292;SDS011;52402;52.670;6.750;2024-01-27T01:45:53;18.13;;;17.23;;
60292;SDS011;52402;52.670;6.750;2024-01-27T01:48:19;16.58;;;15.77;;
60292;SDS011;52402;52.670;6.750;2024-01-27T01:50:49;16.73;;;15.93;;
60292;SDS011;52402;52.670;6.750;2024-01-27T01:53:15;16.50;;;15.70;;
60292;SDS011;52402;52.670;6.750;2024-01-27T01:55:41;16.00;;;15.20;;
60292;SDS011;52402;52.670;6.750;2024-01-27T01:58:09;15.15;;;14.45;;
60292;SDS011;52402;52.670;6.750;2024-01-27T02:00:34;17.20;;;16.40;;
60292;SDS011;52402;52.670;6.750;2024-01-27T02:03:00;16.30;;;15.50;;
60292;SDS011;52402;52.670;6.750;2024-01-27T02:05:26;16.00;;;15.20;;
60292;SDS011;52402;52.670;6.750;2024-01-27T02:07:52;16.60;;;15.80;;
60292;SDS011;52402;52.670;6.750;2024-01-27T02:10:21;15.40;;;14.60;;
60292;SDS011;52402;52.670;6.750;2024-01-27T02:12:46;16.77;;;15.98;;
60292;SDS011;52402;52.670;6.750;2024-01-27T02:15:13;15.38;;;14.65;;
60292;SDS011;52402;52.670;6.750;2024-01-27T02:17:39;14.98;;;14.27;;
60292;SDS011;52402;52.670;6.750;2024-01-27T02:20:06;16.25;;;15.45;;
60292;SDS011;52402;52.670;6.750;2024-01-27T02:22:35;16.48;;;15.68;;
60292;SDS011;52402;52.670;6.750;2024-01-27T02:25:04;16.85;;;16.05;;
60292;SDS011;52402;52.670;6.750;2024-01-27T02:27:30;16.98;;;16.17;;
60292;SDS011;52402;52.670;6.750;2024-01-27T02:29:56;16.30;;;15.50;;
60292;SDS011;52402;52.670;6.750;2024-01-27T02:32:23;15.60;;;14.80;;
60292;SDS011;52402;52.670;6.750;2024-01-27T02:34:48;16.33;;;15.52;;
60292;SDS011;52402;52.670;6.750;2024-01-27T02:37:17;16.75;;;15.95;;
60292;SDS011;52402;52.670;6.750;2024-01-27T02:39:44;16.67;;;15.88;;
60292;SDS011;52402;52.670;6.750;2024-01-27T02:42:09;17.92;;;17.13;;
60292;SDS011;52402;52.670;6.750;2024-01-27T02:44:36;17.05;;;16.25;;
60292;SDS011;52402;52.670;6.750;2024-01-27T02:47:02;17.27;;;16.48;;
60292;SDS011;52402;52.670;6.750;2024-01-27T02:49:27;17.05;;;16.25;;
60292;SDS011;52402;52.670;6.750;2024-01-27T02:51:53;17.25;;;16.45;;
60292;SDS011;52402;52.670;6.750;2024-01-27T02:54:19;16.95;;;16.15;;
60292;SDS011;52402;52.670;6.750;2024-01-27T02:56:45;16.55;;;15.75;;
60292;SDS011;52402;52.670;6.750;2024-01-27T02:59:11;17.75;;;16.95;;
60292;SDS011;52402;52.670;6.750;2024-01-27T03:01:37;16.98;;;16.17;;
60292;SDS011;52402;52.670;6.750;2024-01-27T03:04:02;16.95;;;16.15;;
60292;SDS011;52402;52.670;6.750;2024-01-27T03:06:28;17.25;;;16.45;;
60292;SDS011;52402;52.670;6.750;2024-01-27T03:08:54;17.05;;;16.25;;
60292;SDS011;52402;52.670;6.750;2024-01-27T03:11:20;16.80;;;16.00;;
60292;SDS011;52402;52.670;6.750;2024-01-27T03:13:46;17.52;;;16.73;;
60292;SDS011;52402;52.670;6.750;2024-01-27T03:16:12;17.65;;;16.85;;
60292;SDS011;52402;52.670;6.750;2024-01-27T03:18:38;18.02;;;17.20;;
60292;SDS011;52402;52.670;6.750;2024-01-27T03:21:05;18.48;;;17.58;;
60292;SDS011;52402;52.670;6.750;2024-01-27T03:23:34;17.50;;;16.70;;
60292;SDS011;52402;52.670;6.750;2024-01-27T03:26:01;18.60;;;17.70;;
60292;SDS011;52402;52.670;6.750;2024-01-27T03:28:27;17.80;;;17.00;;
60292;SDS011;52402;52.670;6.750;2024-01-27T03:30:53;16.75;;;15.95;;
60292;SDS011;52402;52.670;6.750;2024-01-27T03:33:19;16.60;;;15.80;;
60292;SDS011;52402;52.670;6.750;2024-01-27T03:35:44;18.55;;;17.65;;
60292;SDS011;52402;52.670;6.750;2024-01-27T03:38:10;18.13;;;17.23;;
60292;SDS011;52402;52.670;6.750;2024-01-27T03:40:36;19.15;;;18.25;;
60292;SDS011;52402;52.670;6.750;2024-01-27T03:43:02;18.05;;;17.20;;
60292;SDS011;52402;52.670;6.750;2024-01-27T03:45:27;18.00;;;17.13;;
60292;SDS011;52402;52.670;6.750;2024-01-27T03:47:53;19.42;;;18.52;;
60292;SDS011;52402;52.670;6.750;2024-01-27T03:50:19;19.02;;;18.13;;
60292;SDS011;52402;52.670;6.750;2024-01-27T03:52:44;18.38;;;17.48;;
60292;SDS011;52402;52.670;6.750;2024-01-27T03:55:10;17.75;;;16.95;;
60292;SDS011;52402;52.670;6.750;2024-01-27T03:57:36;19.48;;;18.58;;
60292;SDS011;52402;52.670;6.750;2024-01-27T04:00:02;19.17;;;18.27;;
60292;SDS011;52402;52.670;6.750;2024-01-27T04:02:29;18.70;;;17.80;;
60292;SDS011;52402;52.670;6.750;2024-01-27T04:04:55;19.02;;;18.13;;
60292;SDS011;52402;52.670;6.750;2024-01-27T04:07:20;18.15;;;17.27;;
60292;SDS011;52402;52.670;6.750;2024-01-27T04:09:46;17.73;;;16.92;;
60292;SDS011;52402;52.670;6.750;2024-01-27T04:12:12;17.45;;;16.65;;
60292;SDS011;52402;52.670;6.750;2024-01-27T04:14:37;18.73;;;17.83;;
60292;SDS011;52402;52.670;6.750;2024-01-27T04:17:03;18.30;;;17.42;;
60292;SDS011;52402;52.670;6.750;2024-01-27T04:19:29;17.70;;;16.90;;
60292;SDS011;52402;52.670;6.750;2024-01-27T04:21:54;18.63;;;17.73;;
60292;SDS011;52402;52.670;6.750;2024-01-27T04:24:20;18.92;;;18.02;;
60292;SDS011;52402;52.670;6.750;2024-01-27T04:26:45;18.23;;;17.33;;
60292;SDS011;52402;52.670;6.750;2024-01-27T04:29:11;19.27;;;18.38;;
60292;SDS011;52402;52.670;6.750;2024-01-27T04:31:41;18.83;;;17.92;;
60292;SDS011;52402;52.670;6.750;2024-01-27T04:34:07;19.35;;;18.45;;
60292;SDS011;52402;52.670;6.750;2024-01-27T04:36:32;19.27;;;18.38;;
60292;SDS011;52402;52.670;6.750;2024-01-27T04:38:58;18.25;;;17.35;;
60292;SDS011;52402;52.670;6.750;2024-01-27T04:41:24;18.67;;;17.77;;
60292;SDS011;52402;52.670;6.750;2024-01-27T04:43:49;18.75;;;17.85;;
60292;SDS011;52402;52.670;6.750;2024-01-27T04:46:16;19.65;;;18.75;;
60292;SDS011;52402;52.670;6.750;2024-01-27T04:48:42;18.00;;;17.15;;
60292;SDS011;52402;52.670;6.750;2024-01-27T04:51:07;19.50;;;18.60;;
60292;SDS011;52402;52.670;6.750;2024-01-27T04:53:33;18.95;;;18.05;;
60292;SDS011;52402;52.670;6.750;2024-01-27T04:55:59;18.90;;;18.00;;
60292;SDS011;52402;52.670;6.750;2024-01-27T04:58:25;19.73;;;18.83;;
60292;SDS011;52402;52.670;6.750;2024-01-27T05:00:50;18.65;;;17.75;;
60292;SDS011;52402;52.670;6.750;2024-01-27T05:03:16;19.20;;;18.30;;
60292;SDS011;52402;52.670;6.750;2024-01-27T05:05:43;18.08;;;17.20;;
60292;SDS011;52402;52.670;6.750;2024-01-27T05:08:09;19.27;;;18.38;;
60292;SDS011;52402;52.670;6.750;2024-01-27T05:10:35;19.30;;;18.40;;
60292;SDS011;52402;52.670;6.750;2024-01-27T05:13:02;19.75;;;18.85;;
60292;SDS011;52402;52.670;6.750;2024-01-27T05:15:27;19.50;;;18.60;;
60292;SDS011;52402;52.670;6.750;2024-01-27T05:17:53;19.65;;;18.75;;
60292;SDS011;52402;52.670;6.750;2024-01-27T05:20:19;20.45;;;19.55;;
60292;SDS011;52402;52.670;6.750;2024-01-27T05:22:45;20.80;;;19.80;;
60292;SDS011;52402;52.670;6.750;2024-01-27T05:25:11;19.63;;;18.73;;
60292;SDS011;52402;52.670;6.750;2024-01-27T05:27:37;20.00;;;19.10;;
60292;SDS011;52402;52.670;6.750;2024-01-27T05:30:04;20.52;;;19.60;;
60292;SDS011;52402;52.670;6.750;2024-01-27T05:32:31;19.55;;;18.65;;
60292;SDS011;52402;52.670;6.750;2024-01-27T05:34:56;19.73;;;18.83;;
60292;SDS011;52402;52.670;6.750;2024-01-27T05:37:23;19.85;;;18.95;;
60292;SDS011;52402;52.670;6.750;2024-01-27T05:39:55;20.30;;;19.40;;
60292;SDS011;52402;52.670;6.750;2024-01-27T05:42:21;19.75;;;18.85;;
60292;SDS011;52402;52.670;6.750;2024-01-27T05:44:49;19.40;;;18.50;;
60292;SDS011;52402;52.670;6.750;2024-01-27T05:47:14;20.10;;;19.20;;
60292;SDS011;52402;52.670;6.750;2024-01-27T05:49:41;20.85;;;19.85;;
60292;SDS011;52402;52.670;6.750;2024-01-27T05:52:06;20.85;;;19.85;;
60292;SDS011;52402;52.670;6.750;2024-01-27T05:54:32;20.08;;;19.17;;
60292;SDS011;52402;52.670;6.750;2024-01-27T05:56:58;19.60;;;18.70;;
60292;SDS011;52402;52.670;6.750;2024-01-27T05:59:23;20.60;;;19.65;;
60292;SDS011;52402;52.670;6.750;2024-01-27T06:01:49;19.27;;;18.38;;
60292;SDS011;52402;52.670;6.750;2024-01-27T06:04:15;20.30;;;19.40;;
60292;SDS011;52402;52.670;6.750;2024-01-27T06:06:40;20.15;;;19.25;;
60292;SDS011;52402;52.670;6.750;2024-01-27T06:09:08;19.10;;;18.20;;
60292;SDS011;52402;52.670;6.750;2024-01-27T06:11:38;19.45;;;18.55;;
60292;SDS011;52402;52.670;6.750;2024-01-27T06:14:04;20.38;;;19.48;;
60292;SDS011;52402;52.670;6.750;2024-01-27T06:16:32;20.05;;;19.15;;
60292;SDS011;52402;52.670;6.750;2024-01-27T06:19:00;19.70;;;18.80;;
60292;SDS011;52402;52.670;6.750;2024-01-27T06:21:25;19.13;;;18.23;;
60292;SDS011;52402;52.670;6.750;2024-01-27T06:23:51;19.50;;;18.60;;
60292;SDS011;52402;52.670;6.750;2024-01-27T06:26:16;19.70;;;18.80;;
60292;SDS011;52402;52.670;6.750;2024-01-27T06:28:43;18.63;;;17.73;;
60292;SDS011;52402;52.670;6.750;2024-01-27T06:31:09;18.92;;;18.02;;
60292;SDS011;52402;52.670;6.750;2024-01-27T06:33:34;19.35;;;18.45;;
60292;SDS011;52402;52.670;6.750;2024-01-27T06:36:00;19.23;;;18.33;;
60292;SDS011;52402;52.670;6.750;2024-01-27T06:38:26;18.80;;;17.90;;
60292;SDS011;52402;52.670;6.750;2024-01-27T06:40:52;18.48;;;17.58;;
60292;SDS011;52402;52.670;6.750;2024-01-27T06:43:19;18.73;;;17.83;;
60292;SDS011;52402;52.670;6.750;2024-01-27T06:45:45;18.92;;;18.02;;
60292;SDS011;52402;52.670;6.750;2024-01-27T06:48:10;19.15;;;18.25;;
60292;SDS011;52402;52.670;6.750;2024-01-27T06:50:36;18.10;;;17.25;;
60292;SDS011;52402;52.670;6.750;2024-01-27T06:53:01;19.13;;;18.23;;
60292;SDS011;52402;52.670;6.750;2024-01-27T06:55:27;18.45;;;17.55;;
60292;SDS011;52402;52.670;6.750;2024-01-27T06:57:55;18.05;;;17.20;;
60292;SDS011;52402;52.670;6.750;2024-01-27T07:00:21;20.02;;;19.13;;
60292;SDS011;52402;52.670;6.750;2024-01-27T07:02:47;19.65;;;18.75;;
60292;SDS011;52402;52.670;6.750;2024-01-27T07:05:12;20.33;;;19.42;;
60292;SDS011;52402;52.670;6.750;2024-01-27T07:07:39;17.70;;;16.90;;
60292;SDS011;52402;52.670;6.750;2024-01-27T07:10:05;17.83;;;17.02;;
60292;SDS011;52402;52.670;6.750;2024-01-27T07:12:33;18.45;;;17.55;;
60292;SDS011;52402;52.670;6.750;2024-01-27T07:14:59;17.35;;;16.55;;
60292;SDS011;52402;52.670;6.750;2024-01-27T07:17:28;19.58;;;18.67;;
60292;SDS011;52402;52.670;6.750;2024-01-27T07:19:54;18.35;;;17.45;;
60292;SDS011;52402;52.670;6.750;2024-01-27T07:22:20;18.15;;;17.27;;
60292;SDS011;52402;52.670;6.750;2024-01-27T07:24:47;16.90;;;16.10;;
60292;SDS011;52402;52.670;6.750;2024-01-27T07:27:16;16.70;;;15.90;;
60292;SDS011;52402;52.670;6.750;2024-01-27T07:29:42;15.55;;;14.75;;
60292;SDS011;52402;52.670;6.750;2024-01-27T07:32:07;15.38;;;14.63;;
60292;SDS011;52402;52.670;6.750;2024-01-27T07:34:38;16.20;;;15.40;;
60292;SDS011;52402;52.670;6.750;2024-01-27T07:37:06;16.13;;;15.32;;
60292;SDS011;52402;52.670;6.750;2024-01-27T07:39:33;16.23;;;15.43;;
60292;SDS011;52402;52.670;6.750;2024-01-27T07:41:58;16.27;;;15.48;;
60292;SDS011;52402;52.670;6.750;2024-01-27T07:44:24;15.13;;;14.43;;
60292;SDS011;52402;52.670;6.750;2024-01-27T07:46:50;16.00;;;15.20;;
60292;SDS011;52402;52.670;6.750;2024-01-27T07:49:16;16.33;;;15.52;;
60292;SDS011;52402;52.670;6.750;2024-01-27T07:51:42;16.05;;;15.25;;
60292;SDS011;52402;52.670;6.750;2024-01-27T07:54:09;16.50;;;15.70;;
60292;SDS011;52402;52.670;6.750;2024-01-27T07:56:34;15.23;;;14.52;;
60292;SDS011;52402;52.670;6.750;2024-01-27T07:59:00;15.93;;;15.13;;
60292;SDS011;52402;52.670;6.750;2024-01-27T08:01:27;16.17;;;15.38;;
60292;SDS011;52402;52.670;6.750;2024-01-27T08:03:53;15.35;;;14.63;;
60292;SDS011;52402;52.670;6.750;2024-01-27T08:06:22;14.98;;;14.27;;
60292;SDS011;52402;52.670;6.750;2024-01-27T08:08:52;14.70;;;14.00;;
60292;SDS011;52402;52.670;6.750;2024-01-27T08:11:18;15.88;;;15.07;;
60292;SDS011;52402;52.670;6.750;2024-01-27T08:13:43;15.98;;;15.18;;
60292;SDS011;52402;52.670;6.750;2024-01-27T08:16:09;14.40;;;13.70;;
60292;SDS011;52402;52.670;6.750;2024-01-27T08:18:37;15.95;;;15.15;;
60292;SDS011;52402;52.670;6.750;2024-01-27T08:21:04;15.02;;;14.32;;
60292;SDS011;52402;52.670;6.750;2024-01-27T08:23:29;13.75;;;13.05;;
60292;SDS011;52402;52.670;6.750;2024-01-27T08:25:55;15.85;;;15.05;;
60292;SDS011;52402;52.670;6.750;2024-01-27T08:28:21;14.90;;;14.20;;
60292;SDS011;52402;52.670;6.750;2024-01-27T08:30:47;14.88;;;14.18;;
60292;SDS011;52402;52.670;6.750;2024-01-27T08:33:14;15.25;;;14.52;;
60292;SDS011;52402;52.670;6.750;2024-01-27T08:35:40;15.15;;;14.43;;
60292;SDS011;52402;52.670;6.750;2024-01-27T08:38:06;15.95;;;15.15;;
60292;SDS011;52402;52.670;6.750;2024-01-27T08:40:32;14.95;;;14.25;;
60292;SDS011;52402;52.670;6.750;2024-01-27T08:42:57;15.15;;;14.45;;
60292;SDS011;52402;52.670;6.750;2024-01-27T08:45:23;15.35;;;14.60;;
60292;SDS011;52402;52.670;6.750;2024-01-27T08:47:50;15.15;;;14.45;;
60292;SDS011;52402;52.670;6.750;2024-01-27T08:50:16;14.13;;;13.43;;
60292;SDS011;52402;52.670;6.750;2024-01-27T08:52:42;13.30;;;12.60;;
60292;SDS011;52402;52.670;6.750;2024-01-27T08:55:08;12.90;;;12.20;;
60292;SDS011;52402;52.670;6.750;2024-01-27T08:57:34;13.45;;;12.75;;
60292;SDS011;52402;52.670;6.750;2024-01-27T08:59:59;13.30;;;12.60;;
60292;SDS011;52402;52.670;6.750;2024-01-27T09:02:25;14.07;;;13.38;;
60292;SDS011;52402;52.670;6.750;2024-01-27T09:04:50;12.82;;;12.13;;
60292;SDS011;52402;52.670;6.750;2024-01-27T09:07:16;14.63;;;13.93;;
60292;SDS011;52402;52.670;6.750;2024-01-27T09:09:42;12.50;;;11.90;;
60292;SDS011;52402;52.670;6.750;2024-01-27T09:12:08;13.32;;;12.63;;
60292;SDS011;52402;52.670;6.750;2024-01-27T09:14:33;13.02;;;12.32;;
60292;SDS011;52402;52.670;6.750;2024-01-27T09:17:00;13.23;;;12.52;;
60292;SDS011;52402;52.670;6.750;2024-01-27T09:19:25;13.45;;;12.75;;
60292;SDS011;52402;52.670;6.750;2024-01-27T09:21:51;12.75;;;12.07;;
60292;SDS011;52402;52.670;6.750;2024-01-27T09:24:17;13.05;;;12.35;;
60292;SDS011;52402;52.670;6.750;2024-01-27T09:26:42;13.50;;;12.80;;
60292;SDS011;52402;52.670;6.750;2024-01-27T09:29:09;13.55;;;12.85;;
60292;SDS011;52402;52.670;6.750;2024-01-27T09:31:35;12.93;;;12.23;;
60292;SDS011;52402;52.670;6.750;2024-01-27T09:34:00;13.27;;;12.57;;
60292;SDS011;52402;52.670;6.750;2024-01-27T09:36:26;13.27;;;12.57;;
60292;SDS011;52402;52.670;6.750;2024-01-27T09:38:52;13.13;;;12.43;;
60292;SDS011;52402;52.670;6.750;2024-01-27T09:41:19;13.63;;;12.93;;
60292;SDS011;52402;52.670;6.750;2024-01-27T09:43:45;13.13;;;12.43;;
60292;SDS011;52402;52.670;6.750;2024-01-27T09:46:12;13.48;;;12.77;;
60292;SDS011;52402;52.670;6.750;2024-01-27T09:48:41;14.60;;;13.90;;
60292;SDS011;52402;52.670;6.750;2024-01-27T09:51:08;13.80;;;13.10;;
60292;SDS011;52402;52.670;6.750;2024-01-27T09:53:35;13.98;;;13.27;;
60292;SDS011;52402;52.670;6.750;2024-01-27T09:56:01;14.50;;;13.80;;
60292;SDS011;52402;52.670;6.750;2024-01-27T09:58:29;13.52;;;12.82;;
60292;SDS011;52402;52.670;6.750;2024-01-27T10:00:59;13.40;;;12.70;;
60292;SDS011;52402;52.670;6.750;2024-01-27T10:03:26;14.35;;;13.65;;
60292;SDS011;52402;52.670;6.750;2024-01-27T10:05:53;13.25;;;12.55;;
60292;SDS011;52402;52.670;6.750;2024-01-27T10:08:23;14.98;;;14.27;;
60292;SDS011;52402;52.670;6.750;2024-01-27T10:10:56;13.73;;;13.02;;
60292;SDS011;52402;52.670;6.750;2024-01-27T10:13:22;13.23;;;12.52;;
60292;SDS011;52402;52.670;6.750;2024-01-27T10:16:01;13.97;;;13.27;;
60292;SDS011;52402;52.670;6.750;2024-01-27T10:18:33;13.40;;;12.70;;
60292;SDS011;52402;52.670;6.750;2024-01-27T10:20:59;14.02;;;13.32;;
60292;SDS011;52402;52.670;6.750;2024-01-27T10:23:25;13.70;;;13.00;;
60292;SDS011;52402;52.670;6.750;2024-01-27T10:25:51;13.25;;;12.55;;
60292;SDS011;52402;52.670;6.750;2024-01-27T10:28:17;13.18;;;12.48;;
60292;SDS011;52402;52.670;6.750;2024-01-27T10:30:45;13.65;;;12.95;;
60292;SDS011;52402;52.670;6.750;2024-01-27T10:33:11;12.90;;;12.20;;
60292;SDS011;52402;52.670;6.750;2024-01-27T10:35:40;12.48;;;11.88;;
60292;SDS011;52402;52.670;6.750;2024-01-27T10:38:06;13.65;;;12.95;;
60292;SDS011;52402;52.670;6.750;2024-01-27T10:40:32;13.10;;;12.40;;
60292;SDS011;52402;52.670;6.750;2024-01-27T10:43:02;13.68;;;12.98;;
60292;SDS011;52402;52.670;6.750;2024-01-27T10:45:32;14.25;;;13.55;;
60292;SDS011;52402;52.670;6.750;2024-01-27T10:48:01;13.90;;;13.20;;
60292;SDS011;52402;52.670;6.750;2024-01-27T10:50:28;13.98;;;13.27;;
60292;SDS011;52402;52.670;6.750;2024-01-27T10:52:55;14.27;;;13.57;;
60292;SDS011;52402;52.670;6.750;2024-01-27T10:55:23;14.73;;;14.02;;
60292;SDS011;52402;52.670;6.750;2024-01-27T10:57:50;14.27;;;13.57;;
60292;SDS011;52402;52.670;6.750;2024-01-27T11:00:19;13.40;;;12.70;;
60292;SDS011;52402;52.670;6.750;2024-01-27T11:02:45;14.38;;;13.68;;
60292;SDS011;52402;52.670;6.750;2024-01-27T11:05:11;14.30;;;13.60;;
60292;SDS011;52402;52.670;6.750;2024-01-27T11:07:40;14.05;;;13.35;;
60292;SDS011;52402;52.670;6.750;2024-01-27T11:10:07;13.55;;;12.85;;
60292;SDS011;52402;52.670;6.750;2024-01-27T11:12:33;14.45;;;13.75;;
60292;SDS011;52402;52.670;6.750;2024-01-27T11:14:59;15.02;;;14.27;;
60292;SDS011;52402;52.670;6.750;2024-01-27T11:17:26;15.55;;;14.75;;
60292;SDS011;52402;52.670;6.750;2024-01-27T11:19:53;15.80;;;15.00;;
60292;SDS011;52402;52.670;6.750;2024-01-27T11:24:51;15.77;;;14.98;;
60292;SDS011;52402;52.670;6.750;2024-01-27T11:27:18;14.60;;;13.90;;
60292;SDS011;52402;52.670;6.750;2024-01-27T11:29:53;14.30;;;13.60;;
60292;SDS011;52402;52.670;6.750;2024-01-27T11:32:20;14.77;;;14.07;;
60292;SDS011;52402;52.670;6.750;2024-01-27T11:34:47;14.63;;;13.93;;
60292;SDS011;52402;52.670;6.750;2024-01-27T11:37:16;14.13;;;13.43;;
60292;SDS011;52402;52.670;6.750;2024-01-27T11:39:42;14.70;;;14.00;;
60292;SDS011;52402;52.670;6.750;2024-01-27T11:42:08;14.35;;;13.65;;
60292;SDS011;52402;52.670;6.750;2024-01-27T11:44:39;15.10;;;14.30;;
60292;SDS011;52402;52.670;6.750;2024-01-27T11:47:08;14.95;;;14.18;;
60292;SDS011;52402;52.670;6.750;2024-01-27T11:49:42;14.68;;;13.98;;
60292;SDS011;52402;52.670;6.750;2024-01-27T11:52:09;14.05;;;13.35;;
60292;SDS011;52402;52.670;6.750;2024-01-27T11:54:35;14.43;;;13.73;;
60292;SDS011;52402;52.670;6.750;2024-01-27T11:57:03;14.00;;;13.30;;
60292;SDS011;52402;52.670;6.750;2024-01-27T11:59:29;14.95;;;14.18;;
60292;SDS011;52402;52.670;6.750;2024-01-27T12:01:55;15.70;;;14.90;;
60292;SDS011;52402;52.670;6.750;2024-01-27T12:04:20;15.07;;;14.27;;
60292;SDS011;52402;52.670;6.750;2024-01-27T12:06:46;15.50;;;14.70;;
60292;SDS011;52402;52.670;6.750;2024-01-27T12:09:13;15.10;;;14.30;;
60292;SDS011;52402;52.670;6.750;2024-01-27T12:11:40;15.00;;;14.20;;
60292;SDS011;52402;52.670;6.750;2024-01-27T12:14:06;14.75;;;13.98;;
60292;SDS011;52402;52.670;6.750;2024-01-27T12:16:32;15.80;;;15.00;;
60292;SDS011;52402;52.670;6.750;2024-01-27T12:18:58;16.05;;;15.25;;
60292;SDS011;52402;52.670;6.750;2024-01-27T12:21:24;15.52;;;14.73;;
60292;SDS011;52402;52.670;6.750;2024-01-27T12:23:52;16.25;;;15.45;;
60292;SDS011;52402;52.670;6.750;2024-01-27T12:26:25;15.30;;;14.50;;
60292;SDS011;52402;52.670;6.750;2024-01-27T12:28:53;15.02;;;14.23;;
60292;SDS011;52402;52.670;6.750;2024-01-27T12:31:25;15.25;;;14.45;;
60292;SDS011;52402;52.670;6.750;2024-01-27T12:33:55;16.45;;;15.65;;
60292;SDS011;52402;52.670;6.750;2024-01-27T12:36:24;16.05;;;15.25;;
60292;SDS011;52402;52.670;6.750;2024-01-27T12:41:19;16.42;;;15.63;;
60292;SDS011;52402;52.670;6.750;2024-01-27T12:43:45;16.45;;;15.65;;
60292;SDS011;52402;52.670;6.750;2024-01-27T12:46:12;16.05;;;15.25;;
60292;SDS011;52402;52.670;6.750;2024-01-27T12:48:39;16.58;;;15.77;;
60292;SDS011;52402;52.670;6.750;2024-01-27T12:51:05;15.98;;;15.18;;
60292;SDS011;52402;52.670;6.750;2024-01-27T12:53:31;16.52;;;15.73;;
60292;SDS011;52402;52.670;6.750;2024-01-27T12:55:56;17.15;;;16.25;;
60292;SDS011;52402;52.670;6.750;2024-01-27T12:58:22;16.15;;;15.35;;
60292;SDS011;52402;52.670;6.750;2024-01-27T13:00:48;15.90;;;15.10;;
60292;SDS011;52402;52.670;6.750;2024-01-27T13:03:14;15.57;;;14.77;;
60292;SDS011;52402;52.670;6.750;2024-01-27T13:05:39;15.68;;;14.88;;
60292;SDS011;52402;52.670;6.750;2024-01-27T13:08:05;15.30;;;14.50;;
60292;SDS011;52402;52.670;6.750;2024-01-27T13:10:30;16.10;;;15.30;;
60292;SDS011;52402;52.670;6.750;2024-01-27T13:12:56;15.70;;;14.90;;
60292;SDS011;52402;52.670;6.750;2024-01-27T13:15:23;16.48;;;15.65;;
60292;SDS011;52402;52.670;6.750;2024-01-27T13:17:50;16.10;;;15.30;;
60292;SDS011;52402;52.670;6.750;2024-01-27T13:20:16;15.27;;;14.48;;
60292;SDS011;52402;52.670;6.750;2024-01-27T13:22:42;15.88;;;15.07;;
60292;SDS011;52402;52.670;6.750;2024-01-27T13:25:08;16.60;;;15.80;;
60292;SDS011;52402;52.670;6.750;2024-01-27T13:27:34;16.35;;;15.55;;
60292;SDS011;52402;52.670;6.750;2024-01-27T13:30:00;16.05;;;15.25;;
60292;SDS011;52402;52.670;6.750;2024-01-27T13:32:26;16.63;;;15.80;;
60292;SDS011;52402;52.670;6.750;2024-01-27T13:34:52;16.38;;;15.57;;
60292;SDS011;52402;52.670;6.750;2024-01-27T13:37:18;16.05;;;15.25;;
60292;SDS011;52402;52.670;6.750;2024-01-27T13:39:46;16.17;;;15.38;;
60292;SDS011;52402;52.670;6.750;2024-01-27T13:42:12;16.00;;;15.20;;
60292;SDS011;52402;52.670;6.750;2024-01-27T13:44:38;15.98;;;15.18;;
60292;SDS011;52402;52.670;6.750;2024-01-27T13:47:05;15.48;;;14.68;;
60292;SDS011;52402;52.670;6.750;2024-01-27T13:49:32;14.40;;;13.70;;
60292;SDS011;52402;52.670;6.750;2024-01-27T13:51:57;15.48;;;14.68;;
60292;SDS011;52402;52.670;6.750;2024-01-27T13:54:23;16.00;;;15.20;;
60292;SDS011;52402;52.670;6.750;2024-01-27T13:56:49;15.65;;;14.85;;
60292;SDS011;52402;52.670;6.750;2024-01-27T13:59:14;15.65;;;14.85;;
60292;SDS011;52402;52.670;6.750;2024-01-27T14:01:41;15.52;;;14.73;;
60292;SDS011;52402;52.670;6.750;2024-01-27T14:04:08;15.80;;;15.00;;
60292;SDS011;52402;52.670;6.750;2024-01-27T14:06:34;14.80;;;14.00;;
60292;SDS011;52402;52.670;6.750;2024-01-27T14:09:00;15.65;;;14.85;;
60292;SDS011;52402;52.670;6.750;2024-01-27T14:11:27;15.75;;;14.95;;
60292;SDS011;52402;52.670;6.750;2024-01-27T14:13:53;15.68;;;14.88;;
60292;SDS011;52402;52.670;6.750;2024-01-27T14:16:19;15.73;;;14.93;;
60292;SDS011;52402;52.670;6.750;2024-01-27T14:18:44;15.85;;;15.05;;
60292;SDS011;52402;52.670;6.750;2024-01-27T14:21:12;15.88;;;15.07;;